sensor_id;sensor_type;location;lat;lon;timestamp;temperature;humidity
64499;SHT31;51087;55.718;21.122;2023-02-12T00:01:36;-2.38;99.99
64499;SHT31;51087;55.718;21.122;2023-02-12T00:04:02;-2.53;99.99
64499;SHT31;51087;55.718;21.122;2023-02-12T00:06:27;-2.60;99.99
64499;SHT31;51087;55.718;21.122;2023-02-12T00:08:54;-2.60;99.99
64499;SHT31;51087;55.718;21.122;2023-02-12T00:11:23;-2.67;99.99
64499;SHT31;51087;55.718;21.122;2023-02-12T00:13:49;-2.69;99.99
64499;SHT31;51087;55.718;21.122;2023-02-12T00:16:16;-2.76;99.99
64499;SHT31;51087;55.718;21.122;2023-02-12T00:18:43;-2.75;99.99
64499;SHT31;51087;55.718;21.122;2023-02-12T00:21:09;-2.74;99.99
64499;SHT31;51087;55.718;21.122;2023-02-12T00:23:37;-2.72;99.99
64499;SHT31;51087;55.718;21.122;2023-02-12T00:26:07;-2.81;99.99
64499;SHT31;51087;55.718;21.122;2023-02-12T00:28:33;-2.84;99.99
64499;SHT31;51087;55.718;21.122;2023-02-12T00:31:13;-2.86;99.99
64499;SHT31;51087;55.718;21.122;2023-02-12T00:33:38;-2.88;99.99
64499;SHT31;51087;55.718;21.122;2023-02-12T00:36:05;-2.85;99.99
64499;SHT31;51087;55.718;21.122;2023-02-12T00:38:31;-2.89;99.99
64499;SHT31;51087;55.718;21.122;2023-02-12T00:40:56;-2.92;99.99
64499;SHT31;51087;55.718;21.122;2023-02-12T00:43:22;-2.91;99.99
64499;SHT31;51087;55.718;21.122;2023-02-12T00:45:47;-2.93;99.99
64499;SHT31;51087;55.718;21.122;2023-02-12T00:48:13;-2.95;99.99
64499;SHT31;51087;55.718;21.122;2023-02-12T00:50:39;-2.95;99.99
64499;SHT31;51087;55.718;21.122;2023-02-12T00:53:07;-2.99;99.99
64499;SHT31;51087;55.718;21.122;2023-02-12T00:55:33;-2.99;99.99
64499;SHT31;51087;55.718;21.122;2023-02-12T00:57:59;-2.88;99.99
64499;SHT31;51087;55.718;21.122;2023-02-12T01:00:25;-2.82;99.99
64499;SHT31;51087;55.718;21.122;2023-02-12T01:02:50;-2.89;99.99
64499;SHT31;51087;55.718;21.122;2023-02-12T01:05:16;-2.96;99.99
64499;SHT31;51087;55.718;21.122;2023-02-12T01:07:41;-3.00;99.99
64499;SHT31;51087;55.718;21.122;2023-02-12T01:10:07;-3.00;99.99
64499;SHT31;51087;55.718;21.122;2023-02-12T01:12:33;-3.06;99.99
64499;SHT31;51087;55.718;21.122;2023-02-12T01:14:59;-3.09;99.99
64499;SHT31;51087;55.718;21.122;2023-02-12T01:17:24;-3.16;99.99
64499;SHT31;51087;55.718;21.122;2023-02-12T01:19:50;-3.09;99.99
64499;SHT31;51087;55.718;21.122;2023-02-12T01:22:15;-3.10;99.99
64499;SHT31;51087;55.718;21.122;2023-02-12T01:24:42;-3.16;99.99
64499;SHT31;51087;55.718;21.122;2023-02-12T01:27:07;-3.20;99.99
64499;SHT31;51087;55.718;21.122;2023-02-12T01:29:33;-3.19;99.99
64499;SHT31;51087;55.718;21.122;2023-02-12T01:31:58;-3.23;99.99
64499;SHT31;51087;55.718;21.122;2023-02-12T01:34:23;-3.17;99.99
64499;SHT31;51087;55.718;21.122;2023-02-12T01:36:49;-3.14;99.99
64499;SHT31;51087;55.718;21.122;2023-02-12T01:39:14;-3.12;99.99
64499;SHT31;51087;55.718;21.122;2023-02-12T01:41:42;-3.10;99.99
64499;SHT31;51087;55.718;21.122;2023-02-12T01:44:13;-3.09;99.99
64499;SHT31;51087;55.718;21.122;2023-02-12T01:46:40;-2.93;99.99
64499;SHT31;51087;55.718;21.122;2023-02-12T01:49:50;-2.86;99.99
64499;SHT31;51087;55.718;21.122;2023-02-12T01:52:09;-2.76;99.99
64499;SHT31;51087;55.718;21.122;2023-02-12T01:54:37;-2.72;99.99
64499;SHT31;51087;55.718;21.122;2023-02-12T01:57:04;-2.69;99.99
64499;SHT31;51087;55.718;21.122;2023-02-12T01:59:31;-2.69;99.99
64499;SHT31;51087;55.718;21.122;2023-02-12T02:01:57;-2.68;99.99
64499;SHT31;51087;55.718;21.122;2023-02-12T02:04:27;-2.61;99.99
64499;SHT31;51087;55.718;21.122;2023-02-12T02:06:58;-2.48;99.99
64499;SHT31;51087;55.718;21.122;2023-02-12T02:09:25;-2.44;99.99
64499;SHT31;51087;55.718;21.122;2023-02-12T02:11:51;-2.40;99.99
64499;SHT31;51087;55.718;21.122;2023-02-12T02:14:35;-2.41;99.99
64499;SHT31;51087;55.718;21.122;2023-02-12T02:19:55;-2.34;99.99
64499;SHT31;51087;55.718;21.122;2023-02-12T02:28:02;-2.22;99.99
64499;SHT31;51087;55.718;21.122;2023-02-12T02:30:35;-2.22;99.99
64499;SHT31;51087;55.718;21.122;2023-02-12T02:36:18;-2.07;99.99
64499;SHT31;51087;55.718;21.122;2023-02-12T02:38:54;-1.95;99.99
64499;SHT31;51087;55.718;21.122;2023-02-12T02:41:43;-1.83;99.99
64499;SHT31;51087;55.718;21.122;2023-02-12T02:44:15;-1.75;99.99
64499;SHT31;51087;55.718;21.122;2023-02-12T02:46:44;-1.68;99.99
64499;SHT31;51087;55.718;21.122;2023-02-12T02:49:18;-1.61;99.99
64499;SHT31;51087;55.718;21.122;2023-02-12T02:51:49;-1.43;99.99
64499;SHT31;51087;55.718;21.122;2023-02-12T02:54:18;-1.24;99.99
64499;SHT31;51087;55.718;21.122;2023-02-12T02:56:48;-1.15;99.99
64499;SHT31;51087;55.718;21.122;2023-02-12T02:59:27;-1.06;99.99
64499;SHT31;51087;55.718;21.122;2023-02-12T03:04:44;-0.77;99.33
64499;SHT31;51087;55.718;21.122;2023-02-12T03:07:24;-0.72;98.79
64499;SHT31;51087;55.718;21.122;2023-02-12T03:09:53;-0.67;97.84
64499;SHT31;51087;55.718;21.122;2023-02-12T03:12:33;-0.54;97.26
64499;SHT31;51087;55.718;21.122;2023-02-12T03:15:08;-0.56;97.30
64499;SHT31;51087;55.718;21.122;2023-02-12T03:17:37;-0.47;97.25
64499;SHT31;51087;55.718;21.122;2023-02-12T03:22:36;-0.38;95.60
64499;SHT31;51087;55.718;21.122;2023-02-12T03:25:12;-0.30;95.42
64499;SHT31;51087;55.718;21.122;2023-02-12T03:28:09;-0.26;96.26
64499;SHT31;51087;55.718;21.122;2023-02-12T03:31:45;-0.17;95.97
64499;SHT31;51087;55.718;21.122;2023-02-12T03:36:21;-0.03;94.88
64499;SHT31;51087;55.718;21.122;2023-02-12T03:38:53;0.05;93.95
64499;SHT31;51087;55.718;21.122;2023-02-12T03:41:30;0.14;92.62
64499;SHT31;51087;55.718;21.122;2023-02-12T03:52:16;0.48;90.08
64499;SHT31;51087;55.718;21.122;2023-02-12T03:54:41;0.57;89.03
64499;SHT31;51087;55.718;21.122;2023-02-12T03:57:09;0.72;86.01
64499;SHT31;51087;55.718;21.122;2023-02-12T03:59:37;0.87;84.52
64499;SHT31;51087;55.718;21.122;2023-02-12T04:02:03;0.94;83.71
64499;SHT31;51087;55.718;21.122;2023-02-12T04:04:29;0.94;84.69
64499;SHT31;51087;55.718;21.122;2023-02-12T04:06:56;0.95;84.38
64499;SHT31;51087;55.718;21.122;2023-02-12T04:09:25;0.90;86.30
64499;SHT31;51087;55.718;21.122;2023-02-12T04:31:29;0.90;83.15
64499;SHT31;51087;55.718;21.122;2023-02-12T04:37:22;0.88;84.04
64499;SHT31;51087;55.718;21.122;2023-02-12T04:39:50;0.81;83.49
64499;SHT31;51087;55.718;21.122;2023-02-12T04:42:17;0.76;83.47
64499;SHT31;51087;55.718;21.122;2023-02-12T04:44:43;0.79;83.52
64499;SHT31;51087;55.718;21.122;2023-02-12T04:47:13;0.76;83.45
64499;SHT31;51087;55.718;21.122;2023-02-12T04:49:39;0.72;83.81
64499;SHT31;51087;55.718;21.122;2023-02-12T04:52:05;0.70;83.08
64499;SHT31;51087;55.718;21.122;2023-02-12T04:54:31;0.63;84.32
64499;SHT31;51087;55.718;21.122;2023-02-12T04:56:58;0.66;83.10
64499;SHT31;51087;55.718;21.122;2023-02-12T04:59:24;0.67;83.51
64499;SHT31;51087;55.718;21.122;2023-02-12T05:01:49;0.69;84.39
64499;SHT31;51087;55.718;21.122;2023-02-12T05:04:16;0.70;83.75
64499;SHT31;51087;55.718;21.122;2023-02-12T05:06:42;0.62;84.78
64499;SHT31;51087;55.718;21.122;2023-02-12T05:09:12;0.59;85.11
64499;SHT31;51087;55.718;21.122;2023-02-12T05:11:38;0.60;85.88
64499;SHT31;51087;55.718;21.122;2023-02-12T05:14:03;0.49;86.44
64499;SHT31;51087;55.718;21.122;2023-02-12T05:16:28;0.42;86.74
64499;SHT31;51087;55.718;21.122;2023-02-12T05:18:54;0.29;87.66
64499;SHT31;51087;55.718;21.122;2023-02-12T05:21:19;0.26;86.88
64499;SHT31;51087;55.718;21.122;2023-02-12T05:23:45;0.35;86.07
64499;SHT31;51087;55.718;21.122;2023-02-12T05:26:16;0.36;86.70
64499;SHT31;51087;55.718;21.122;2023-02-12T05:28:42;0.41;86.28
64499;SHT31;51087;55.718;21.122;2023-02-12T05:31:15;0.48;86.71
64499;SHT31;51087;55.718;21.122;2023-02-12T05:33:42;0.70;84.53
64499;SHT31;51087;55.718;21.122;2023-02-12T05:36:19;0.81;84.46
64499;SHT31;51087;55.718;21.122;2023-02-12T05:38:47;0.81;84.66
64499;SHT31;51087;55.718;21.122;2023-02-12T05:41:19;0.94;83.97
64499;SHT31;51087;55.718;21.122;2023-02-12T05:43:45;1.09;82.85
64499;SHT31;51087;55.718;21.122;2023-02-12T05:46:11;1.09;82.81
64499;SHT31;51087;55.718;21.122;2023-02-12T05:48:37;1.11;82.74
64499;SHT31;51087;55.718;21.122;2023-02-12T05:51:04;1.22;82.41
64499;SHT31;51087;55.718;21.122;2023-02-12T05:53:30;1.29;80.90
64499;SHT31;51087;55.718;21.122;2023-02-12T05:56:10;1.19;83.06
64499;SHT31;51087;55.718;21.122;2023-02-12T05:58:35;1.18;82.74
64499;SHT31;51087;55.718;21.122;2023-02-12T06:01:01;1.12;83.29
64499;SHT31;51087;55.718;21.122;2023-02-12T06:03:26;1.17;82.79
64499;SHT31;51087;55.718;21.122;2023-02-12T06:05:52;1.09;83.94
64499;SHT31;51087;55.718;21.122;2023-02-12T06:08:18;1.12;83.98
64499;SHT31;51087;55.718;21.122;2023-02-12T06:10:43;1.01;85.09
64499;SHT31;51087;55.718;21.122;2023-02-12T06:13:10;0.94;84.86
64499;SHT31;51087;55.718;21.122;2023-02-12T06:15:36;1.02;84.81
64499;SHT31;51087;55.718;21.122;2023-02-12T06:18:01;0.95;85.58
64499;SHT31;51087;55.718;21.122;2023-02-12T06:20:27;1.08;85.22
64499;SHT31;51087;55.718;21.122;2023-02-12T06:22:52;0.95;85.80
64499;SHT31;51087;55.718;21.122;2023-02-12T06:25:17;0.88;87.01
64499;SHT31;51087;55.718;21.122;2023-02-12T06:27:43;0.88;87.41
64499;SHT31;51087;55.718;21.122;2023-02-12T06:30:09;0.95;86.84
64499;SHT31;51087;55.718;21.122;2023-02-12T06:32:34;1.04;87.00
64499;SHT31;51087;55.718;21.122;2023-02-12T06:35:00;1.09;86.56
64499;SHT31;51087;55.718;21.122;2023-02-12T06:37:25;1.11;86.82
64499;SHT31;51087;55.718;21.122;2023-02-12T06:39:50;1.22;86.81
64499;SHT31;51087;55.718;21.122;2023-02-12T06:42:16;1.22;87.20
64499;SHT31;51087;55.718;21.122;2023-02-12T06:44:41;1.38;85.99
64499;SHT31;51087;55.718;21.122;2023-02-12T06:47:07;1.42;84.33
64499;SHT31;51087;55.718;21.122;2023-02-12T06:49:32;1.48;83.09
64499;SHT31;51087;55.718;21.122;2023-02-12T06:51:57;1.56;82.74
64499;SHT31;51087;55.718;21.122;2023-02-12T06:54:23;1.62;82.74
64499;SHT31;51087;55.718;21.122;2023-02-12T06:56:48;1.84;81.31
64499;SHT31;51087;55.718;21.122;2023-02-12T06:59:15;1.76;81.82
64499;SHT31;51087;55.718;21.122;2023-02-12T07:01:41;1.66;82.49
64499;SHT31;51087;55.718;21.122;2023-02-12T07:04:06;1.77;83.29
64499;SHT31;51087;55.718;21.122;2023-02-12T07:06:34;1.83;82.86
64499;SHT31;51087;55.718;21.122;2023-02-12T07:09:00;1.94;81.70
64499;SHT31;51087;55.718;21.122;2023-02-12T07:11:27;1.93;82.46
64499;SHT31;51087;55.718;21.122;2023-02-12T07:13:53;1.91;82.95
64499;SHT31;51087;55.718;21.122;2023-02-12T07:16:19;1.87;84.20
64499;SHT31;51087;55.718;21.122;2023-02-12T07:18:45;1.94;82.93
64499;SHT31;51087;55.718;21.122;2023-02-12T07:21:12;1.97;83.56
64499;SHT31;51087;55.718;21.122;2023-02-12T07:23:39;1.98;83.59
64499;SHT31;51087;55.718;21.122;2023-02-12T07:26:12;2.04;83.49
64499;SHT31;51087;55.718;21.122;2023-02-12T07:28:38;2.08;83.40
64499;SHT31;51087;55.718;21.122;2023-02-12T07:31:14;2.05;84.07
64499;SHT31;51087;55.718;21.122;2023-02-12T07:33:40;2.17;83.63
64499;SHT31;51087;55.718;21.122;2023-02-12T07:36:11;2.17;84.70
64499;SHT31;51087;55.718;21.122;2023-02-12T07:38:38;2.20;83.72
64499;SHT31;51087;55.718;21.122;2023-02-12T07:43:33;2.39;82.74
64499;SHT31;51087;55.718;21.122;2023-02-12T07:46:09;2.46;82.61
64499;SHT31;51087;55.718;21.122;2023-02-12T07:48:35;2.52;81.81
64499;SHT31;51087;55.718;21.122;2023-02-12T07:51:30;2.63;81.19
64499;SHT31;51087;55.718;21.122;2023-02-12T07:54:06;2.66;82.13
64499;SHT31;51087;55.718;21.122;2023-02-12T07:56:34;2.73;82.42
64499;SHT31;51087;55.718;21.122;2023-02-12T07:59:01;2.80;82.00
64499;SHT31;51087;55.718;21.122;2023-02-12T08:01:34;2.90;82.30
64499;SHT31;51087;55.718;21.122;2023-02-12T08:04:02;2.93;82.26
64499;SHT31;51087;55.718;21.122;2023-02-12T08:06:31;3.04;82.30
64499;SHT31;51087;55.718;21.122;2023-02-12T08:08:58;3.05;82.49
64499;SHT31;51087;55.718;21.122;2023-02-12T08:11:25;3.25;80.78
64499;SHT31;51087;55.718;21.122;2023-02-12T08:13:52;3.31;81.13
64499;SHT31;51087;55.718;21.122;2023-02-12T08:16:19;3.43;81.34
64499;SHT31;51087;55.718;21.122;2023-02-12T08:18:50;3.39;81.36
64499;SHT31;51087;55.718;21.122;2023-02-12T08:21:19;3.52;80.79
64499;SHT31;51087;55.718;21.122;2023-02-12T08:23:45;3.53;80.82
64499;SHT31;51087;55.718;21.122;2023-02-12T08:26:16;3.60;80.70
64499;SHT31;51087;55.718;21.122;2023-02-12T08:28:46;3.69;81.32
64499;SHT31;51087;55.718;21.122;2023-02-12T08:31:20;3.67;81.82
64499;SHT31;51087;55.718;21.122;2023-02-12T08:33:47;3.70;81.55
64499;SHT31;51087;55.718;21.122;2023-02-12T08:36:15;3.51;81.70
64499;SHT31;51087;55.718;21.122;2023-02-12T08:38:42;3.53;81.72
64499;SHT31;51087;55.718;21.122;2023-02-12T08:41:32;3.60;82.26
64499;SHT31;51087;55.718;21.122;2023-02-12T08:44:01;3.70;83.11
64499;SHT31;51087;55.718;21.122;2023-02-12T08:46:32;3.64;83.17
64499;SHT31;51087;55.718;21.122;2023-02-12T08:49:06;3.64;83.42
64499;SHT31;51087;55.718;21.122;2023-02-12T08:51:35;3.76;82.87
64499;SHT31;51087;55.718;21.122;2023-02-12T08:54:05;3.66;81.71
64499;SHT31;51087;55.718;21.122;2023-02-12T08:56:31;3.51;82.50
64499;SHT31;51087;55.718;21.122;2023-02-12T08:58:59;3.55;81.72
64499;SHT31;51087;55.718;21.122;2023-02-12T09:01:29;3.48;82.70
64499;SHT31;51087;55.718;21.122;2023-02-12T09:03:55;3.51;83.19
64499;SHT31;51087;55.718;21.122;2023-02-12T09:06:22;3.67;82.39
64499;SHT31;51087;55.718;21.122;2023-02-12T09:08:50;3.79;82.93
64499;SHT31;51087;55.718;21.122;2023-02-12T09:11:26;3.70;83.82
64499;SHT31;51087;55.718;21.122;2023-02-12T09:13:57;4.11;82.15
64499;SHT31;51087;55.718;21.122;2023-02-12T09:16:28;4.24;81.31
64499;SHT31;51087;55.718;21.122;2023-02-12T09:18:55;4.01;81.78
64499;SHT31;51087;55.718;21.122;2023-02-12T09:21:21;4.10;80.92
64499;SHT31;51087;55.718;21.122;2023-02-12T09:23:47;4.12;81.28
64499;SHT31;51087;55.718;21.122;2023-02-12T09:26:15;4.05;82.43
64499;SHT31;51087;55.718;21.122;2023-02-12T09:28:41;4.15;82.49
64499;SHT31;51087;55.718;21.122;2023-02-12T09:31:09;4.07;82.10
64499;SHT31;51087;55.718;21.122;2023-02-12T09:33:35;3.89;81.92
64499;SHT31;51087;55.718;21.122;2023-02-12T09:36:06;4.14;81.01
64499;SHT31;51087;55.718;21.122;2023-02-12T09:38:34;4.15;81.05
64499;SHT31;51087;55.718;21.122;2023-02-12T09:44:32;4.25;81.53
64499;SHT31;51087;55.718;21.122;2023-02-12T09:47:03;4.38;82.04
64499;SHT31;51087;55.718;21.122;2023-02-12T09:49:48;4.32;82.62
64499;SHT31;51087;55.718;21.122;2023-02-12T09:52:24;4.31;81.88
64499;SHT31;51087;55.718;21.122;2023-02-12T09:54:51;4.29;83.07
64499;SHT31;51087;55.718;21.122;2023-02-12T09:57:25;4.29;82.47
64499;SHT31;51087;55.718;21.122;2023-02-12T09:59:57;4.24;82.75
64499;SHT31;51087;55.718;21.122;2023-02-12T10:02:24;4.27;83.22
64499;SHT31;51087;55.718;21.122;2023-02-12T10:04:50;4.12;83.08
64499;SHT31;51087;55.718;21.122;2023-02-12T10:10:27;3.95;83.88
64499;SHT31;51087;55.718;21.122;2023-02-12T10:13:04;3.87;84.52
64499;SHT31;51087;55.718;21.122;2023-02-12T10:21:00;3.91;84.43
64499;SHT31;51087;55.718;21.122;2023-02-12T10:26:21;4.04;84.24
64499;SHT31;51087;55.718;21.122;2023-02-12T10:28:50;4.12;85.12
64499;SHT31;51087;55.718;21.122;2023-02-12T10:31:24;4.21;84.59
64499;SHT31;51087;55.718;21.122;2023-02-12T10:33:52;4.18;84.68
64499;SHT31;51087;55.718;21.122;2023-02-12T10:41:32;4.20;84.28
64499;SHT31;51087;55.718;21.122;2023-02-12T10:44:00;4.14;84.23
64499;SHT31;51087;55.718;21.122;2023-02-12T10:46:29;3.86;85.60
64499;SHT31;51087;55.718;21.122;2023-02-12T10:48:57;3.98;85.61
64499;SHT31;51087;55.718;21.122;2023-02-12T10:56:59;3.94;86.55
64499;SHT31;51087;55.718;21.122;2023-02-12T10:59:30;4.05;86.95
64499;SHT31;51087;55.718;21.122;2023-02-12T11:01:55;3.97;87.23
64499;SHT31;51087;55.718;21.122;2023-02-12T11:04:26;4.01;87.23
64499;SHT31;51087;55.718;21.122;2023-02-12T11:07:01;3.95;86.97
64499;SHT31;51087;55.718;21.122;2023-02-12T11:12:01;3.90;86.57
64499;SHT31;51087;55.718;21.122;2023-02-12T11:14:28;3.93;86.64
64499;SHT31;51087;55.718;21.122;2023-02-12T11:16:58;3.90;86.83
64499;SHT31;51087;55.718;21.122;2023-02-12T11:19:30;3.91;87.31
64499;SHT31;51087;55.718;21.122;2023-02-12T11:22:08;3.93;88.19
64499;SHT31;51087;55.718;21.122;2023-02-12T11:24:35;3.91;88.03
64499;SHT31;51087;55.718;21.122;2023-02-12T11:27:23;3.97;87.80
64499;SHT31;51087;55.718;21.122;2023-02-12T11:32:37;4.14;87.22
64499;SHT31;51087;55.718;21.122;2023-02-12T11:35:05;4.21;87.27
64499;SHT31;51087;55.718;21.122;2023-02-12T11:37:39;4.27;87.12
64499;SHT31;51087;55.718;21.122;2023-02-12T11:40:05;4.25;86.92
64499;SHT31;51087;55.718;21.122;2023-02-12T11:42:34;4.22;87.34
64499;SHT31;51087;55.718;21.122;2023-02-12T11:45:02;4.24;86.90
64499;SHT31;51087;55.718;21.122;2023-02-12T11:47:34;4.27;87.07
64499;SHT31;51087;55.718;21.122;2023-02-12T11:52:40;4.32;87.28
64499;SHT31;51087;55.718;21.122;2023-02-12T11:55:21;4.20;87.63
64499;SHT31;51087;55.718;21.122;2023-02-12T11:57:50;4.31;87.99
64499;SHT31;51087;55.718;21.122;2023-02-12T12:02:57;4.15;88.19
64499;SHT31;51087;55.718;21.122;2023-02-12T12:05:30;4.15;88.75
64499;SHT31;51087;55.718;21.122;2023-02-12T12:07:58;4.29;88.92
64499;SHT31;51087;55.718;21.122;2023-02-12T12:13:03;4.49;88.57
64499;SHT31;51087;55.718;21.122;2023-02-12T12:15:37;4.39;87.87
64499;SHT31;51087;55.718;21.122;2023-02-12T12:18:55;4.60;87.30
64499;SHT31;51087;55.718;21.122;2023-02-12T12:21:46;4.72;86.90
64499;SHT31;51087;55.718;21.122;2023-02-12T12:24:16;4.88;87.78
64499;SHT31;51087;55.718;21.122;2023-02-12T12:27:03;4.97;86.49
64499;SHT31;51087;55.718;21.122;2023-02-12T12:29:45;4.94;86.51
64499;SHT31;51087;55.718;21.122;2023-02-12T12:32:14;4.86;86.28
64499;SHT31;51087;55.718;21.122;2023-02-12T12:34:40;5.03;86.12
64499;SHT31;51087;55.718;21.122;2023-02-12T12:37:30;4.98;86.10
64499;SHT31;51087;55.718;21.122;2023-02-12T12:40:13;5.14;86.38
64499;SHT31;51087;55.718;21.122;2023-02-12T12:45:28;5.52;85.48
64499;SHT31;51087;55.718;21.122;2023-02-12T12:56:15;5.27;85.12
64499;SHT31;51087;55.718;21.122;2023-02-12T13:07:18;4.69;87.52
64499;SHT31;51087;55.718;21.122;2023-02-12T13:12:58;4.63;88.34
64499;SHT31;51087;55.718;21.122;2023-02-12T13:26:17;4.35;88.10
64499;SHT31;51087;55.718;21.122;2023-02-12T13:28:48;4.28;88.89
64499;SHT31;51087;55.718;21.122;2023-02-12T13:31:21;4.25;89.41
64499;SHT31;51087;55.718;21.122;2023-02-12T13:33:59;4.28;89.48
64499;SHT31;51087;55.718;21.122;2023-02-12T13:36:25;4.21;89.95
64499;SHT31;51087;55.718;21.122;2023-02-12T13:39:13;4.12;89.96
64499;SHT31;51087;55.718;21.122;2023-02-12T13:41:47;4.18;90.22
64499;SHT31;51087;55.718;21.122;2023-02-12T13:44:28;4.15;90.15
64499;SHT31;51087;55.718;21.122;2023-02-12T13:52:32;3.97;90.96
64499;SHT31;51087;55.718;21.122;2023-02-12T13:55:09;4.00;91.22
64499;SHT31;51087;55.718;21.122;2023-02-12T13:57:37;3.90;91.28
64499;SHT31;51087;55.718;21.122;2023-02-12T14:00:03;3.97;91.30
64499;SHT31;51087;55.718;21.122;2023-02-12T14:05:00;3.89;91.88
64499;SHT31;51087;55.718;21.122;2023-02-12T14:07:49;3.80;92.05
64499;SHT31;51087;55.718;21.122;2023-02-12T14:10:24;3.86;92.26
64499;SHT31;51087;55.718;21.122;2023-02-12T14:12:52;3.89;92.50
64499;SHT31;51087;55.718;21.122;2023-02-12T14:15:33;3.89;92.73
64499;SHT31;51087;55.718;21.122;2023-02-12T14:23:44;3.74;93.92
64499;SHT31;51087;55.718;21.122;2023-02-12T14:26:35;3.77;93.91
64499;SHT31;51087;55.718;21.122;2023-02-12T14:29:03;3.77;93.97
64499;SHT31;51087;55.718;21.122;2023-02-12T14:31:32;3.83;93.49
64499;SHT31;51087;55.718;21.122;2023-02-12T14:36:39;3.80;94.37
64499;SHT31;51087;55.718;21.122;2023-02-12T14:39:27;3.72;94.76
64499;SHT31;51087;55.718;21.122;2023-02-12T14:41:55;3.79;94.98
64499;SHT31;51087;55.718;21.122;2023-02-12T14:44:47;3.80;95.05
64499;SHT31;51087;55.718;21.122;2023-02-12T14:47:48;3.76;95.53
64499;SHT31;51087;55.718;21.122;2023-02-12T14:50:21;3.73;95.89
64499;SHT31;51087;55.718;21.122;2023-02-12T14:52:57;3.73;96.24
64499;SHT31;51087;55.718;21.122;2023-02-12T14:55:29;3.58;97.46
64499;SHT31;51087;55.718;21.122;2023-02-12T14:58:04;3.55;98.95
64499;SHT31;51087;55.718;21.122;2023-02-12T15:00:38;3.49;99.97
64499;SHT31;51087;55.718;21.122;2023-02-12T15:05:53;3.29;99.99
64499;SHT31;51087;55.718;21.122;2023-02-12T15:22:35;3.36;99.99
64499;SHT31;51087;55.718;21.122;2023-02-12T15:25:28;3.38;99.99
64499;SHT31;51087;55.718;21.122;2023-02-12T15:27:59;3.43;99.99
64499;SHT31;51087;55.718;21.122;2023-02-12T15:30:29;3.48;99.99
64499;SHT31;51087;55.718;21.122;2023-02-12T15:32:59;3.46;99.99
64499;SHT31;51087;55.718;21.122;2023-02-12T15:35:28;3.48;99.99
64499;SHT31;51087;55.718;21.122;2023-02-12T15:37:55;3.53;99.99
64499;SHT31;51087;55.718;21.122;2023-02-12T15:40:23;3.53;99.99
64499;SHT31;51087;55.718;21.122;2023-02-12T15:45:24;3.60;99.99
64499;SHT31;51087;55.718;21.122;2023-02-12T15:50:35;3.66;99.99
64499;SHT31;51087;55.718;21.122;2023-02-12T15:53:09;3.73;99.99
64499;SHT31;51087;55.718;21.122;2023-02-12T15:55:41;3.74;99.99
64499;SHT31;51087;55.718;21.122;2023-02-12T15:58:20;3.76;99.99
64499;SHT31;51087;55.718;21.122;2023-02-12T16:00:46;3.79;99.99
64499;SHT31;51087;55.718;21.122;2023-02-12T16:03:26;3.84;99.99
64499;SHT31;51087;55.718;21.122;2023-02-12T16:05:55;3.82;99.99
64499;SHT31;51087;55.718;21.122;2023-02-12T16:08:22;3.82;99.99
64499;SHT31;51087;55.718;21.122;2023-02-12T16:10:52;3.77;99.99
64499;SHT31;51087;55.718;21.122;2023-02-12T16:13:23;3.83;99.99
64499;SHT31;51087;55.718;21.122;2023-02-12T16:16:03;3.80;99.99
64499;SHT31;51087;55.718;21.122;2023-02-12T16:18:30;3.83;99.99
64499;SHT31;51087;55.718;21.122;2023-02-12T16:21:22;3.87;99.99
64499;SHT31;51087;55.718;21.122;2023-02-12T16:23:49;3.94;99.99
64499;SHT31;51087;55.718;21.122;2023-02-12T16:26:21;3.90;99.99
64499;SHT31;51087;55.718;21.122;2023-02-12T16:28:49;3.93;99.99
64499;SHT31;51087;55.718;21.122;2023-02-12T16:31:17;3.94;99.99
64499;SHT31;51087;55.718;21.122;2023-02-12T16:33:46;3.93;99.99
64499;SHT31;51087;55.718;21.122;2023-02-12T16:39:05;3.93;99.99
64499;SHT31;51087;55.718;21.122;2023-02-12T16:41:34;3.94;99.99
64499;SHT31;51087;55.718;21.122;2023-02-12T16:49:17;3.95;99.99
64499;SHT31;51087;55.718;21.122;2023-02-12T16:51:44;3.98;99.99
64499;SHT31;51087;55.718;21.122;2023-02-12T16:56:53;3.98;99.99
64499;SHT31;51087;55.718;21.122;2023-02-12T16:59:19;4.01;99.99
64499;SHT31;51087;55.718;21.122;2023-02-12T17:02:08;4.03;99.99
64499;SHT31;51087;55.718;21.122;2023-02-12T17:04:35;4.03;99.99
64499;SHT31;51087;55.718;21.122;2023-02-12T17:07:01;4.08;99.99
64499;SHT31;51087;55.718;21.122;2023-02-12T17:09:26;4.05;99.99
64499;SHT31;51087;55.718;21.122;2023-02-12T17:11:55;4.11;99.99
64499;SHT31;51087;55.718;21.122;2023-02-12T17:14:21;4.11;99.99
64499;SHT31;51087;55.718;21.122;2023-02-12T17:16:47;4.11;99.99
64499;SHT31;51087;55.718;21.122;2023-02-12T17:19:12;4.14;99.99
64499;SHT31;51087;55.718;21.122;2023-02-12T17:21:40;4.12;99.99
64499;SHT31;51087;55.718;21.122;2023-02-12T17:26:40;4.14;99.99
64499;SHT31;51087;55.718;21.122;2023-02-12T17:29:07;4.11;99.99
64499;SHT31;51087;55.718;21.122;2023-02-12T17:31:34;4.12;99.99
64499;SHT31;51087;55.718;21.122;2023-02-12T17:34:00;4.14;99.99
64499;SHT31;51087;55.718;21.122;2023-02-12T17:36:26;4.12;99.99
64499;SHT31;51087;55.718;21.122;2023-02-12T17:38:53;4.14;99.99
64499;SHT31;51087;55.718;21.122;2023-02-12T17:41:18;4.08;99.99
64499;SHT31;51087;55.718;21.122;2023-02-12T17:43:44;4.11;99.99
64499;SHT31;51087;55.718;21.122;2023-02-12T17:46:29;4.12;99.99
64499;SHT31;51087;55.718;21.122;2023-02-12T17:48:55;4.11;99.99
64499;SHT31;51087;55.718;21.122;2023-02-12T17:51:21;4.11;99.99
64499;SHT31;51087;55.718;21.122;2023-02-12T17:53:47;4.12;99.99
64499;SHT31;51087;55.718;21.122;2023-02-12T17:56:15;4.14;99.99
64499;SHT31;51087;55.718;21.122;2023-02-12T17:58:41;4.11;99.99
64499;SHT31;51087;55.718;21.122;2023-02-12T18:01:08;4.11;99.99
64499;SHT31;51087;55.718;21.122;2023-02-12T18:03:34;4.10;99.99
64499;SHT31;51087;55.718;21.122;2023-02-12T18:06:00;4.14;99.99
64499;SHT31;51087;55.718;21.122;2023-02-12T18:08:26;4.12;99.99
64499;SHT31;51087;55.718;21.122;2023-02-12T18:10:52;4.20;99.99
64499;SHT31;51087;55.718;21.122;2023-02-12T18:13:17;4.17;99.99
64499;SHT31;51087;55.718;21.122;2023-02-12T18:15:43;4.17;99.99
64499;SHT31;51087;55.718;21.122;2023-02-12T18:18:09;4.15;99.99
64499;SHT31;51087;55.718;21.122;2023-02-12T18:20:35;4.18;99.99
64499;SHT31;51087;55.718;21.122;2023-02-12T18:23:00;4.14;99.99
64499;SHT31;51087;55.718;21.122;2023-02-12T18:25:28;4.15;99.99
64499;SHT31;51087;55.718;21.122;2023-02-12T18:27:53;4.17;99.99
64499;SHT31;51087;55.718;21.122;2023-02-12T18:30:20;4.12;99.99
64499;SHT31;51087;55.718;21.122;2023-02-12T18:32:45;4.14;99.99
64499;SHT31;51087;55.718;21.122;2023-02-12T18:35:12;4.14;99.99
64499;SHT31;51087;55.718;21.122;2023-02-12T18:37:38;4.11;99.99
64499;SHT31;51087;55.718;21.122;2023-02-12T18:40:06;4.11;99.99
64499;SHT31;51087;55.718;21.122;2023-02-12T18:42:32;4.11;99.99